createdAt,value
2018-12-31T00:02:24.062Z,17.63
2018-12-31T00:04:51.349Z,12.00
2018-12-31T00:07:18.630Z,13.93
2018-12-31T00:09:45.893Z,14.80
2018-12-31T00:12:13.176Z,16.97
2018-12-31T00:14:40.426Z,16.63
2018-12-31T00:17:07.698Z,17.73
2018-12-31T00:19:34.935Z,14.37
2018-12-31T00:22:02.218Z,20.10
2018-12-31T00:24:29.491Z,15.83
2018-12-31T00:26:56.750Z,15.83
2018-12-31T00:29:24.020Z,13.37
2018-12-31T00:31:51.283Z,14.83
2018-12-31T00:34:18.614Z,13.33
2018-12-31T00:36:45.887Z,18.90
2018-12-31T00:39:13.174Z,15.87
2018-12-31T00:41:40.438Z,14.57
2018-12-31T00:44:07.717Z,17.40
2018-12-31T00:46:34.981Z,16.03
2018-12-31T00:49:02.269Z,13.90
2018-12-31T00:51:29.510Z,13.03
2018-12-31T00:53:56.787Z,16.97
2018-12-31T00:56:24.024Z,22.33
2018-12-31T00:58:51.274Z,14.17
2018-12-31T01:01:18.543Z,21.63
2018-12-31T01:03:45.804Z,15.00
2018-12-31T01:06:13.096Z,16.47
2018-12-31T01:08:40.371Z,18.23
2018-12-31T01:11:07.646Z,22.00
2018-12-31T01:13:34.902Z,23.30
2018-12-31T01:16:02.166Z,20.53
2018-12-31T01:18:29.434Z,15.63
2018-12-31T01:20:56.704Z,21.87
2018-12-31T01:23:23.988Z,19.70
2018-12-31T01:25:51.238Z,16.20
2018-12-31T01:28:18.535Z,22.63
2018-12-31T01:30:45.796Z,22.37
2018-12-31T01:33:13.073Z,16.80
2018-12-31T01:35:40.349Z,13.47
2018-12-31T01:38:07.606Z,17.73
2018-12-31T01:40:34.858Z,15.47
2018-12-31T01:43:02.144Z,12.87
2018-12-31T01:45:29.400Z,17.43
2018-12-31T01:47:56.671Z,15.53
2018-12-31T01:50:23.925Z,16.17
2018-12-31T01:52:51.228Z,16.77
2018-12-31T01:55:18.507Z,18.97
2018-12-31T01:57:45.782Z,22.30
2018-12-31T02:00:13.133Z,13.93
2018-12-31T02:02:40.389Z,14.57
2018-12-31T02:05:07.656Z,19.40
2018-12-31T02:07:36.466Z,14.73
2018-12-31T02:10:05.261Z,19.87
2018-12-31T02:12:32.511Z,16.57
2018-12-31T02:14:59.789Z,15.27
2018-12-31T02:17:27.031Z,20.53
2018-12-31T02:19:54.279Z,24.50
2018-12-31T02:22:21.569Z,13.93
2018-12-31T02:24:48.834Z,17.07
2018-12-31T02:27:16.089Z,20.07
2018-12-31T02:29:43.361Z,14.13
2018-12-31T02:32:10.651Z,23.93
2018-12-31T02:34:37.917Z,22.97
2018-12-31T02:37:05.183Z,26.10
2018-12-31T02:39:32.447Z,24.63
2018-12-31T02:41:59.726Z,16.37
2018-12-31T02:44:27.028Z,20.13
2018-12-31T02:46:54.323Z,20.17
2018-12-31T02:49:21.603Z,20.13
2018-12-31T02:51:48.866Z,22.17
2018-12-31T02:54:16.147Z,23.93
2018-12-31T02:56:46.136Z,17.63
2018-12-31T02:59:13.387Z,21.67
2018-12-31T03:01:40.632Z,18.57
2018-12-31T03:04:07.934Z,18.50
2018-12-31T03:06:35.185Z,20.23
2018-12-31T03:09:04.087Z,21.67
2018-12-31T03:11:31.348Z,21.93
2018-12-31T03:13:58.625Z,21.50
2018-12-31T03:16:25.903Z,26.70
2018-12-31T03:18:53.188Z,18.87
2018-12-31T03:21:20.450Z,23.87
2018-12-31T03:23:47.703Z,27.47
2018-12-31T03:26:14.999Z,21.83
2018-12-31T03:28:42.230Z,18.43
2018-12-31T03:31:09.507Z,28.97
2018-12-31T03:33:36.779Z,22.23
2018-12-31T03:36:04.068Z,19.63
2018-12-31T03:38:31.321Z,18.17
2018-12-31T03:40:58.659Z,21.70
2018-12-31T03:43:25.929Z,22.83
2018-12-31T03:45:53.193Z,20.20
2018-12-31T03:48:20.477Z,23.90
2018-12-31T03:50:47.734Z,24.10
2018-12-31T03:53:14.996Z,23.73
2018-12-31T03:55:42.240Z,26.90
2018-12-31T03:58:09.513Z,17.00
2018-12-31T04:00:36.778Z,28.47
2018-12-31T04:03:05.916Z,24.13
2018-12-31T04:05:33.177Z,18.57
2018-12-31T04:08:00.443Z,22.97
2018-12-31T04:10:27.695Z,21.50
2018-12-31T04:12:54.986Z,32.20
2018-12-31T04:15:22.234Z,20.70
2018-12-31T04:17:49.510Z,18.43
2018-12-31T04:20:16.778Z,16.50
2018-12-31T04:22:44.046Z,30.90
2018-12-31T04:25:11.330Z,29.93
2018-12-31T04:27:38.648Z,18.40
2018-12-31T04:30:05.997Z,25.37
2018-12-31T04:32:33.265Z,23.87
2018-12-31T04:35:00.531Z,26.67
2018-12-31T04:37:27.802Z,23.77
2018-12-31T04:39:55.073Z,20.93
2018-12-31T04:42:22.356Z,29.30
2018-12-31T04:44:49.606Z,26.67
2018-12-31T04:47:16.881Z,31.50
2018-12-31T04:49:44.145Z,22.27
2018-12-31T04:52:11.433Z,22.80
2018-12-31T04:54:38.739Z,20.60
2018-12-31T04:57:06.026Z,28.83
2018-12-31T04:59:33.278Z,24.60
2018-12-31T05:02:00.546Z,15.50
2018-12-31T05:04:27.838Z,21.57
2018-12-31T05:06:55.171Z,26.27
2018-12-31T05:09:22.492Z,18.00
2018-12-31T05:11:50.089Z,21.63
2018-12-31T05:14:18.773Z,22.40
2018-12-31T05:16:47.615Z,27.70
2018-12-31T05:19:14.870Z,19.03
2018-12-31T05:21:42.138Z,27.90
2018-12-31T05:24:09.431Z,26.13
2018-12-31T05:26:36.687Z,20.17
2018-12-31T05:29:03.956Z,18.23
2018-12-31T05:31:31.217Z,24.87
2018-12-31T05:33:58.464Z,20.33
2018-12-31T05:36:25.730Z,20.97
2018-12-31T05:38:53.009Z,28.37
2018-12-31T05:41:20.290Z,25.20
2018-12-31T05:43:47.570Z,22.33
2018-12-31T05:46:14.852Z,20.03
2018-12-31T05:48:42.114Z,15.23
2018-12-31T05:51:09.428Z,23.90
2018-12-31T05:53:38.301Z,21.57
2018-12-31T05:56:05.573Z,19.77
2018-12-31T05:58:32.838Z,19.67
2018-12-31T06:01:00.111Z,18.97
2018-12-31T06:03:27.378Z,22.63
2018-12-31T06:05:54.631Z,19.00
2018-12-31T06:08:21.922Z,21.17
2018-12-31T06:10:49.199Z,23.20
2018-12-31T06:13:16.455Z,28.73
2018-12-31T06:15:43.699Z,23.37
2018-12-31T06:18:10.972Z,20.13
2018-12-31T06:20:38.243Z,23.00
2018-12-31T06:23:05.494Z,22.40
2018-12-31T06:25:32.759Z,22.50
2018-12-31T06:28:00.047Z,22.27
2018-12-31T06:30:27.315Z,19.33
2018-12-31T06:32:54.578Z,13.77
2018-12-31T06:35:21.866Z,17.97
2018-12-31T06:37:49.128Z,25.23
2018-12-31T06:40:16.404Z,24.20
2018-12-31T06:42:43.687Z,14.60
2018-12-31T06:45:10.934Z,22.70
2018-12-31T06:47:38.212Z,19.43
2018-12-31T06:50:05.523Z,16.67
2018-12-31T06:52:32.775Z,18.40
2018-12-31T06:55:00.041Z,30.07
2018-12-31T06:57:27.380Z,25.20
2018-12-31T06:59:54.734Z,22.40
2018-12-31T07:02:21.966Z,22.30
2018-12-31T07:04:49.262Z,20.83
2018-12-31T07:07:16.503Z,18.07
2018-12-31T07:09:43.942Z,21.43
2018-12-31T07:12:11.225Z,18.33
2018-12-31T07:14:38.505Z,23.07
2018-12-31T07:17:05.801Z,21.53
2018-12-31T07:19:33.130Z,18.83
2018-12-31T07:22:00.413Z,32.73
2018-12-31T07:24:27.654Z,25.40
2018-12-31T07:26:54.906Z,27.30
2018-12-31T07:29:22.178Z,21.23
2018-12-31T07:31:49.462Z,21.40
2018-12-31T07:34:16.714Z,21.77
2018-12-31T07:36:43.963Z,24.30
2018-12-31T07:39:11.238Z,32.33
2018-12-31T07:41:38.483Z,23.33
2018-12-31T07:44:05.748Z,26.83
2018-12-31T07:46:33.009Z,24.13
2018-12-31T07:49:00.298Z,25.93
2018-12-31T07:51:27.573Z,21.67
2018-12-31T07:53:54.858Z,22.97
2018-12-31T07:56:22.111Z,24.03
2018-12-31T07:58:49.374Z,23.90
2018-12-31T08:01:16.698Z,26.83
2018-12-31T08:03:44.746Z,31.70
2018-12-31T08:06:12.013Z,23.13
2018-12-31T08:08:39.294Z,28.67
2018-12-31T08:11:06.578Z,25.63
2018-12-31T08:13:33.857Z,22.93
2018-12-31T08:16:01.200Z,28.77
2018-12-31T08:18:28.441Z,24.83
2018-12-31T08:20:55.798Z,20.00
2018-12-31T08:23:23.075Z,25.53
2018-12-31T08:25:50.338Z,25.77
2018-12-31T08:28:17.625Z,27.97
2018-12-31T08:30:44.865Z,23.70
2018-12-31T08:33:12.145Z,28.43
2018-12-31T08:35:39.426Z,26.03
2018-12-31T08:38:06.740Z,26.10
2018-12-31T08:40:34.032Z,25.57
2018-12-31T08:43:01.330Z,21.40
2018-12-31T08:45:28.609Z,24.13
2018-12-31T08:47:55.862Z,21.87
2018-12-31T08:50:23.120Z,23.43
2018-12-31T08:52:50.386Z,17.50
2018-12-31T08:55:17.637Z,17.37
2018-12-31T08:57:44.903Z,19.97
2018-12-31T09:00:12.173Z,21.67
2018-12-31T09:02:39.465Z,16.53
2018-12-31T09:05:06.733Z,20.13
2018-12-31T09:07:34.020Z,27.33
2018-12-31T09:10:01.288Z,18.13
2018-12-31T09:12:28.584Z,20.00
2018-12-31T09:14:55.842Z,15.63
2018-12-31T09:17:23.106Z,18.87
2018-12-31T09:19:50.439Z,20.63
2018-12-31T09:22:17.726Z,17.40
2018-12-31T09:24:45.108Z,14.60
2018-12-31T09:27:12.409Z,19.33
2018-12-31T09:29:39.697Z,19.00
2018-12-31T09:32:06.990Z,16.37
2018-12-31T09:34:34.253Z,12.97
2018-12-31T09:37:01.713Z,14.00
2018-12-31T09:39:29.030Z,28.70
2018-12-31T09:41:56.371Z,18.93
2018-12-31T09:44:23.711Z,11.57
2018-12-31T09:46:50.977Z,17.10
2018-12-31T09:49:18.339Z,19.80
2018-12-31T09:51:45.615Z,20.13
2018-12-31T09:54:14.823Z,18.40
2018-12-31T09:56:41.868Z,17.83
2018-12-31T09:59:09.206Z,13.43
2018-12-31T10:01:36.547Z,16.97
2018-12-31T10:04:03.910Z,15.03
2018-12-31T10:06:31.246Z,18.73
2018-12-31T10:08:58.530Z,17.97
2018-12-31T10:11:27.941Z,18.80
2018-12-31T10:13:55.277Z,19.60
2018-12-31T10:16:24.163Z,26.97
2018-12-31T10:18:51.458Z,15.50
2018-12-31T10:21:18.892Z,16.53
2018-12-31T10:23:46.286Z,15.63
2018-12-31T10:26:18.419Z,13.23
2018-12-31T10:28:45.682Z,17.50
2018-12-31T10:31:12.957Z,17.77
2018-12-31T10:33:40.223Z,17.40
2018-12-31T10:36:07.483Z,17.20
2018-12-31T10:38:34.811Z,15.77
2018-12-31T10:41:02.062Z,18.23
2018-12-31T10:43:29.393Z,11.80
2018-12-31T10:45:56.686Z,18.40
2018-12-31T10:48:25.510Z,12.13
2018-12-31T10:50:52.862Z,17.00
2018-12-31T10:53:20.202Z,15.37
2018-12-31T10:55:48.757Z,14.53
2018-12-31T10:58:16.021Z,12.43
2018-12-31T11:00:45.154Z,15.57
2018-12-31T11:03:12.494Z,16.33
2018-12-31T11:05:39.906Z,14.67
2018-12-31T11:08:07.167Z,13.53
2018-12-31T11:10:36.683Z,14.83
2018-12-31T11:13:03.928Z,14.30
2018-12-31T11:15:31.423Z,13.97
2018-12-31T11:17:58.737Z,12.73
2018-12-31T11:20:26.008Z,15.50
2018-12-31T11:22:53.262Z,15.50
2018-12-31T11:25:20.537Z,19.37
2018-12-31T11:27:47.872Z,11.67
2018-12-31T11:30:15.136Z,13.17
2018-12-31T11:32:42.457Z,14.97
2018-12-31T11:35:09.975Z,13.73
2018-12-31T11:37:37.229Z,11.23
2018-12-31T11:40:05.889Z,11.37
2018-12-31T11:42:33.193Z,14.37
2018-12-31T11:45:00.526Z,10.75
2018-12-31T11:47:27.770Z,15.55
2018-12-31T11:49:55.148Z,10.30
2018-12-31T11:52:25.388Z,8.80
2018-12-31T11:54:52.737Z,8.97
2018-12-31T11:57:19.991Z,18.07
2018-12-31T11:59:47.380Z,11.63
2018-12-31T12:02:14.790Z,13.13
2018-12-31T12:04:42.050Z,13.93
2018-12-31T12:07:09.339Z,12.10
2018-12-31T12:09:36.589Z,15.93
2018-12-31T12:12:03.982Z,15.30
2018-12-31T12:14:31.291Z,20.30
2018-12-31T12:17:00.392Z,20.93
2018-12-31T12:19:27.750Z,14.17
2018-12-31T12:21:55.125Z,20.73
2018-12-31T12:24:28.305Z,20.13
2018-12-31T12:26:55.110Z,16.77
2018-12-31T12:29:22.370Z,18.83
2018-12-31T12:31:49.665Z,19.13
2018-12-31T12:34:16.949Z,21.67
2018-12-31T12:36:47.091Z,17.53
2018-12-31T12:39:16.363Z,26.93
2018-12-31T12:41:50.841Z,20.97
2018-12-31T12:44:22.945Z,21.20
2018-12-31T12:46:50.247Z,18.43
2018-12-31T12:49:17.522Z,22.00
2018-12-31T12:51:47.542Z,26.37
2018-12-31T12:54:14.911Z,27.37
2018-12-31T12:56:42.246Z,21.27
2018-12-31T12:59:10.583Z,19.50
2018-12-31T13:01:37.918Z,26.90
2018-12-31T13:04:05.199Z,25.23
2018-12-31T13:06:32.475Z,28.07
2018-12-31T13:08:59.784Z,25.83
2018-12-31T13:11:27.115Z,23.70
2018-12-31T13:13:54.525Z,27.80
2018-12-31T13:16:21.815Z,25.93
2018-12-31T13:18:49.270Z,28.27
2018-12-31T13:21:16.599Z,24.30
2018-12-31T13:23:45.399Z,22.70
2018-12-31T13:26:12.751Z,27.30
2018-12-31T13:28:39.999Z,22.53
2018-12-31T13:31:07.289Z,20.73
2018-12-31T13:33:35.431Z,24.67
2018-12-31T13:36:02.727Z,29.57
2018-12-31T13:38:29.975Z,27.57
2018-12-31T13:40:57.227Z,25.97
2018-12-31T13:43:26.223Z,20.87
2018-12-31T13:45:53.528Z,23.53
2018-12-31T13:48:20.875Z,22.27
2018-12-31T13:50:48.467Z,20.13
2018-12-31T13:53:15.860Z,24.67
2018-12-31T13:55:43.183Z,25.27
2018-12-31T13:58:10.486Z,22.40
2018-12-31T14:00:38.682Z,20.70
2018-12-31T14:03:05.975Z,23.67
2018-12-31T14:05:33.282Z,26.30
2018-12-31T14:08:04.584Z,20.80
2018-12-31T14:10:31.958Z,27.63
2018-12-31T14:13:00.945Z,24.07
2018-12-31T14:15:28.214Z,17.23
2018-12-31T14:17:55.497Z,21.07
2018-12-31T14:20:22.771Z,22.50
2018-12-31T14:22:50.069Z,29.83
2018-12-31T14:25:17.328Z,25.70
2018-12-31T14:27:44.698Z,24.90
2018-12-31T14:30:11.968Z,21.60
2018-12-31T14:32:41.892Z,22.10
2018-12-31T14:35:09.158Z,24.93
2018-12-31T14:37:36.458Z,27.77
2018-12-31T14:40:08.000Z,25.57
2018-12-31T14:42:35.263Z,24.23
2018-12-31T14:45:02.549Z,29.50
2018-12-31T14:47:29.825Z,23.93
2018-12-31T14:49:57.147Z,30.27
2018-12-31T14:52:24.411Z,24.50
2018-12-31T14:54:51.681Z,22.00
2018-12-31T14:57:19.053Z,23.80
2018-12-31T14:59:46.407Z,23.80
2018-12-31T15:02:13.663Z,28.97
2018-12-31T15:04:40.936Z,22.03
2018-12-31T15:07:11.465Z,25.30
2018-12-31T15:09:38.803Z,27.57
2018-12-31T15:12:07.604Z,22.60
2018-12-31T15:14:35.871Z,25.90
2018-12-31T15:17:24.106Z,20.90
2018-12-31T15:19:52.910Z,22.37
2018-12-31T15:22:20.177Z,21.77
2018-12-31T15:24:47.452Z,22.03
2018-12-31T15:27:14.705Z,19.17
2018-12-31T15:29:41.971Z,24.73
2018-12-31T15:32:09.267Z,22.27
2018-12-31T15:34:36.569Z,24.03
2018-12-31T15:37:03.851Z,20.90
2018-12-31T15:39:31.119Z,24.13
2018-12-31T15:41:58.370Z,22.17
2018-12-31T15:44:27.455Z,19.87
2018-12-31T15:46:54.695Z,18.93
2018-12-31T15:49:21.967Z,17.90
2018-12-31T15:51:49.327Z,23.37
2018-12-31T15:54:16.598Z,26.97
2018-12-31T15:56:43.874Z,27.73
2018-12-31T15:59:12.861Z,19.53
2018-12-31T16:01:40.127Z,19.57
2018-12-31T16:04:07.378Z,21.10
2018-12-31T16:06:34.656Z,20.10
2018-12-31T16:09:01.930Z,19.90
2018-12-31T16:11:29.175Z,21.33
2018-12-31T16:13:56.430Z,17.63
2018-12-31T16:16:23.697Z,24.97
2018-12-31T16:18:50.950Z,21.37
2018-12-31T16:21:18.223Z,22.67
2018-12-31T16:23:45.466Z,23.13
2018-12-31T16:26:12.762Z,24.33
2018-12-31T16:28:40.042Z,23.17
2018-12-31T16:31:07.313Z,20.50
2018-12-31T16:33:34.670Z,24.17
2018-12-31T16:36:01.942Z,19.33
2018-12-31T16:38:29.224Z,20.90
2018-12-31T16:40:58.201Z,22.53
2018-12-31T16:43:25.474Z,24.47
2018-12-31T16:45:52.750Z,23.67
2018-12-31T16:48:20.007Z,28.97
2018-12-31T16:50:47.286Z,19.77
2018-12-31T16:53:14.580Z,21.13
2018-12-31T16:55:41.870Z,21.97
2018-12-31T16:58:09.139Z,22.53
2018-12-31T17:00:36.410Z,20.77
2018-12-31T17:03:03.693Z,21.37
2018-12-31T17:05:30.970Z,24.47
2018-12-31T17:07:58.242Z,28.83
2018-12-31T17:10:27.235Z,24.10
2018-12-31T17:12:54.502Z,24.17
2018-12-31T17:15:21.786Z,26.73
2018-12-31T17:17:49.032Z,23.27
2018-12-31T17:20:16.323Z,22.60
2018-12-31T17:22:43.595Z,24.77
2018-12-31T17:25:10.951Z,28.83
2018-12-31T17:27:38.222Z,30.00
2018-12-31T17:30:07.042Z,28.33
2018-12-31T17:32:34.318Z,27.50
2018-12-31T17:35:01.583Z,26.63
2018-12-31T17:37:32.146Z,21.37
2018-12-31T17:39:59.387Z,20.60
2018-12-31T17:42:26.678Z,20.57
2018-12-31T17:44:54.027Z,21.77
2018-12-31T17:47:21.317Z,22.70
2018-12-31T17:49:48.650Z,22.93
2018-12-31T17:52:17.659Z,23.27
2018-12-31T17:54:44.926Z,28.60
2018-12-31T17:57:13.051Z,37.33
2018-12-31T17:59:40.318Z,42.10
2018-12-31T18:02:07.567Z,36.37
2018-12-31T18:04:34.836Z,35.60
2018-12-31T18:07:03.714Z,35.50
2018-12-31T18:09:31.005Z,38.17
2018-12-31T18:11:58.255Z,42.03
2018-12-31T18:14:25.505Z,43.77
2018-12-31T18:16:52.774Z,42.30
2018-12-31T18:19:21.743Z,46.30
2018-12-31T18:21:49.028Z,41.87
2018-12-31T18:24:16.307Z,33.00
2018-12-31T18:26:43.573Z,36.90
2018-12-31T18:29:10.853Z,33.43
2018-12-31T18:31:38.130Z,32.17
2018-12-31T18:34:05.470Z,31.57
2018-12-31T18:36:32.729Z,37.53
2018-12-31T18:39:00.002Z,30.10
2018-12-31T18:41:27.314Z,22.90
2018-12-31T18:43:54.586Z,21.43
2018-12-31T18:46:21.875Z,26.27
2018-12-31T18:48:50.786Z,25.97
2018-12-31T18:51:18.053Z,33.67
2018-12-31T18:53:45.347Z,23.17
2018-12-31T18:56:12.590Z,22.03
2018-12-31T18:58:39.882Z,24.67
2018-12-31T19:01:07.135Z,17.77
2018-12-31T19:03:34.414Z,15.80
2018-12-31T19:06:01.701Z,12.33
2018-12-31T19:08:28.970Z,14.40
2018-12-31T19:10:56.230Z,11.90
2018-12-31T19:13:23.526Z,13.87
2018-12-31T19:15:50.784Z,14.67
2018-12-31T19:18:18.056Z,13.33
2018-12-31T19:20:45.316Z,12.03
2018-12-31T19:23:12.576Z,13.93
2018-12-31T19:25:39.875Z,17.20
2018-12-31T19:28:07.191Z,26.07
2018-12-31T19:30:34.486Z,17.70
2018-12-31T19:33:01.830Z,19.13
2018-12-31T19:35:29.121Z,15.43
2018-12-31T19:37:56.366Z,15.87
2018-12-31T19:40:23.642Z,18.40
2018-12-31T19:42:50.922Z,17.43
2018-12-31T19:45:19.907Z,14.80
2018-12-31T19:47:47.178Z,16.23
2018-12-31T19:50:14.451Z,14.80
2018-12-31T19:52:41.702Z,28.00
2018-12-31T19:55:09.010Z,41.67
2018-12-31T19:57:36.294Z,28.13
2018-12-31T20:00:08.488Z,24.80
2018-12-31T20:02:35.829Z,17.80
2018-12-31T20:05:03.954Z,17.13
2018-12-31T20:07:31.238Z,25.10
2018-12-31T20:09:58.501Z,30.20
2018-12-31T20:12:25.774Z,22.40
2018-12-31T20:14:53.026Z,14.83
2018-12-31T20:17:20.300Z,17.00
2018-12-31T20:19:47.631Z,16.80
2018-12-31T20:22:14.902Z,17.17
2018-12-31T20:24:42.166Z,15.73
2018-12-31T20:27:09.458Z,13.57
2018-12-31T20:29:36.714Z,21.10
2018-12-31T20:32:03.981Z,12.37
2018-12-31T20:34:31.229Z,12.70
2018-12-31T20:36:58.482Z,11.33
2018-12-31T20:39:25.750Z,27.87
2018-12-31T20:41:53.023Z,18.83
2018-12-31T20:44:22.025Z,10.70
2018-12-31T20:46:49.283Z,7.93
2018-12-31T20:49:16.569Z,7.90
2018-12-31T20:51:43.829Z,8.20
2018-12-31T20:54:11.180Z,6.40
2018-12-31T20:56:38.518Z,8.47
2018-12-31T20:59:07.544Z,6.03
2018-12-31T21:01:34.806Z,6.20
2018-12-31T21:04:02.091Z,5.67
2018-12-31T21:06:29.391Z,8.50
2018-12-31T21:08:56.634Z,8.17
2018-12-31T21:11:23.912Z,7.67
2018-12-31T21:13:52.915Z,11.80
2018-12-31T21:16:20.150Z,10.17
2018-12-31T21:18:47.421Z,12.77
2018-12-31T21:21:16.592Z,15.80
2018-12-31T21:23:43.703Z,12.00
2018-12-31T21:26:10.950Z,15.07
2018-12-31T21:28:39.935Z,12.60
2018-12-31T21:31:07.201Z,11.37
2018-12-31T21:33:34.478Z,11.47
2018-12-31T21:36:01.752Z,13.07
2018-12-31T21:38:29.063Z,13.87
2018-12-31T21:40:56.414Z,13.87
2018-12-31T21:43:24.359Z,13.37
2018-12-31T21:45:51.634Z,14.17
2018-12-31T21:48:18.883Z,15.73
2018-12-31T21:50:46.151Z,16.13
2018-12-31T21:53:13.455Z,17.27
2018-12-31T21:55:40.774Z,13.83
2018-12-31T21:58:09.765Z,17.03
2018-12-31T22:00:37.041Z,18.50
2018-12-31T22:03:04.318Z,17.03
2018-12-31T22:05:31.571Z,14.80
2018-12-31T22:07:58.838Z,20.13
2018-12-31T22:10:26.109Z,19.03
2018-12-31T22:12:53.368Z,13.47
2018-12-31T22:15:20.618Z,20.23
2018-12-31T22:17:47.910Z,16.40
2018-12-31T22:20:15.186Z,17.27
2018-12-31T22:22:42.477Z,18.23
2018-12-31T22:25:09.752Z,19.07
2018-12-31T22:27:37.068Z,15.90
2018-12-31T22:30:05.942Z,14.40
2018-12-31T22:32:33.211Z,13.07
2018-12-31T22:35:00.492Z,13.70
2018-12-31T22:37:27.739Z,12.20
2018-12-31T22:39:55.022Z,13.27
2018-12-31T22:42:24.806Z,14.60
2018-12-31T22:44:52.070Z,13.03
2018-12-31T22:47:19.365Z,17.53
2018-12-31T22:49:46.648Z,14.40
2018-12-31T22:52:14.018Z,15.43
2018-12-31T22:54:43.026Z,19.33
2018-12-31T22:57:10.311Z,15.40
2018-12-31T22:59:37.589Z,13.17
2018-12-31T23:02:06.470Z,15.90
2018-12-31T23:04:33.734Z,18.73
2018-12-31T23:07:01.085Z,21.93
2018-12-31T23:09:28.402Z,38.73
2018-12-31T23:11:57.331Z,65.70
2018-12-31T23:14:24.590Z,112.50
2018-12-31T23:16:53.403Z,109.70
2018-12-31T23:19:20.656Z,154.67
2018-12-31T23:21:48.702Z,151.93
2018-12-31T23:24:15.997Z,127.57
2018-12-31T23:26:43.363Z,96.47
2018-12-31T23:29:10.658Z,50.60
2018-12-31T23:31:37.978Z,53.23
2018-12-31T23:34:05.264Z,55.60
2018-12-31T23:36:33.411Z,47.67
2018-12-31T23:39:05.139Z,49.40
2018-12-31T23:41:29.674Z,44.30
2018-12-31T23:43:56.979Z,45.10
2018-12-31T23:46:24.242Z,35.90
2018-12-31T23:48:51.525Z,35.50
2018-12-31T23:51:19.474Z,31.80
2018-12-31T23:53:46.750Z,26.47
2018-12-31T23:56:14.057Z,24.10
2018-12-31T23:58:41.346Z,23.10
